Rio Orinoco — V7VX7 — position and weather

sailwx.info

Track history (hours):
 
Tides and Currents Weather Stations Pressure Air Temp Water Temp Dewpoint Dewpoint Depression Visibility Wind Speed Wind Dir Waves Ship Positions

Rio Orinoco

Last reported at 2016-May-01 07:34 UTC. Time now 2016-May-01 08:00 UTC.
Position N 01°16' E 103°55'.

Length 274 m; draft 9.3 m.

Type: Tanker. MMSI: 538004236.

Date/timePositionNaut miles runAvg speedWind from/ knotsBaromVisibWave heightAir tempDewpointWater temp
2016-May-01 07:34N 01°16' E 103°55'4 4.3
2016-May-01 06:33N 01°13' E 103°52'7 7.4
2016-May-01 05:33N 01°15' E 103°45'4 0.7
2016-May-01 00:15N 01°14' E 103°41'0 0.0
2016-Apr-30 22:24N 01°14' E 103°41'0 0.0
2016-Apr-30 21:30N 01°14' E 103°41'0 0.0
2016-Apr-30 20:27N 01°14' E 103°41'0 0.0
2016-Apr-30 19:30N 01°14' E 103°41'0 0.0
2016-Apr-30 16:30N 01°14' E 103°41'0 0.0
2016-Apr-30 15:15N 01°14' E 103°41'0 0.0
2016-Apr-30 14:33N 01°14' E 103°41'0 0.0
2016-Apr-30 13:15N 01°14' E 103°41'0 0.0
2016-Apr-30 07:12N 01°14' E 103°41'0 0.0
2016-Apr-29 23:30N 01°14' E 103°41'0 0.0
2016-Apr-29 22:30N 01°14' E 103°41'0 0.0
2016-Apr-29 20:24N 01°14' E 103°41'0 0.0
2016-Apr-29 18:18N 01°14' E 103°41'0 0.1
2016-Apr-29 17:33N 01°14' E 103°41'3 3.1
2016-Apr-29 16:33N 01°11' E 103°39'8 7.5
2016-Apr-29 15:33N 01°10' E 103°47'1010.2
2016-Apr-29 14:33N 01°15' E 103°56'8 7.1
2016-Apr-29 13:26N 01°18' E 104°03'0 0.1
2016-Apr-29 12:14N 01°17' E 104°03'0 0.0
2016-Apr-29 10:29N 01°17' E 104°03'0 0.0
2016-Apr-29 03:17N 01°17' E 104°04'0 0.0
2016-Apr-28 20:23N 01°17' E 104°04'0 0.1
2016-Apr-28 14:29N 01°17' E 104°03'0 0.0
2016-Apr-28 03:26N 01°18' E 104°04'0 0.1
2016-Apr-28 02:17N 01°17' E 104°04'0 0.0
2016-Apr-27 21:23N 01°17' E 104°04'0 0.1
2016-Apr-27 14:23N 01°17' E 104°03'0 0.0
2016-Apr-27 12:05N 01°17' E 104°03'  
Track history (hours):
 
Tides and Currents Weather Stations Pressure Air Temp Water Temp Dewpoint Dewpoint Depression Visibility Wind Speed Wind Dir Waves Ship Positions

Rio Orinoco

Last reported at 2016-May-01 07:34 UTC. Time now 2016-May-01 08:00 UTC.
Position N 01°16' E 103°55'.

Length 274 m; draft 9.3 m.

Type: Tanker. MMSI: 538004236.

Date/timePositionNaut miles runAvg speedWind from/ knotsBaromVisibWave heightAir tempDewpointWater temp
2016-May-01 07:34N 01°16' E 103°55'4 4.3
2016-May-01 06:33N 01°13' E 103°52'7 7.4
2016-May-01 05:33N 01°15' E 103°45'4 0.7
2016-May-01 00:15N 01°14' E 103°41'0 0.0
2016-Apr-30 22:24N 01°14' E 103°41'0 0.0
2016-Apr-30 21:30N 01°14' E 103°41'0 0.0
2016-Apr-30 20:27N 01°14' E 103°41'0 0.0
2016-Apr-30 19:30N 01°14' E 103°41'0 0.0
2016-Apr-30 16:30N 01°14' E 103°41'0 0.0
2016-Apr-30 15:15N 01°14' E 103°41'0 0.0
2016-Apr-30 14:33N 01°14' E 103°41'0 0.0
2016-Apr-30 13:15N 01°14' E 103°41'0 0.0
2016-Apr-30 07:12N 01°14' E 103°41'0 0.0
2016-Apr-29 23:30N 01°14' E 103°41'0 0.0
2016-Apr-29 22:30N 01°14' E 103°41'0 0.0
2016-Apr-29 20:24N 01°14' E 103°41'0 0.0
2016-Apr-29 18:18N 01°14' E 103°41'0 0.1
2016-Apr-29 17:33N 01°14' E 103°41'3 3.1
2016-Apr-29 16:33N 01°11' E 103°39'8 7.5
2016-Apr-29 15:33N 01°10' E 103°47'1010.2
2016-Apr-29 14:33N 01°15' E 103°56'8 7.1
2016-Apr-29 13:26N 01°18' E 104°03'0 0.1
2016-Apr-29 12:14N 01°17' E 104°03'0 0.0
2016-Apr-29 10:29N 01°17' E 104°03'0 0.0
2016-Apr-29 03:17N 01°17' E 104°04'0 0.0
2016-Apr-28 20:23N 01°17' E 104°04'0 0.1
2016-Apr-28 14:29N 01°17' E 104°03'0 0.0
2016-Apr-28 03:26N 01°18' E 104°04'0 0.1
2016-Apr-28 02:17N 01°17' E 104°04'0 0.0
2016-Apr-27 21:23N 01°17' E 104°04'0 0.1
2016-Apr-27 14:23N 01°17' E 104°03'0 0.0
2016-Apr-27 12:05N 01°17' E 104°03'  

Dump ship's entire track history